Time;durP1;ratioP1;P1;durP2;ratioP2;P2;SDS_P1;SDS_P2;PMS_P1;PMS_P2;Temp;Humidity;BMP_temperature;BMP_pressure;BME280_temperature;BME280_humidity;BME280_pressure;Samples;Min_cycle;Max_cycle;Signal;HPM_P1;HPM_P2
2023/05/09 16:25:05;;;;;;;7.40;3.97;;;16.40;99.90;;;;;;5108701;27;20112;-65
2023/05/09 16:27:31;;;;;;;6.78;4.65;;;16.20;99.90;;;;;;5108988;28;20035;-67
2023/05/09 16:29:57;;;;;;;6.00;3.95;;;16.20;99.90;;;;;;5090606;28;20017;-64
2023/05/09 16:32:22;;;;;;;5.93;3.72;;;16.30;99.90;;;;;;5096277;28;20020;-66
2023/05/09 16:34:48;;;;;;;5.50;3.80;;;16.40;99.90;;;;;;5086597;28;20052;-66
2023/05/09 16:37:15;;;;;;;6.00;3.78;;;16.50;99.90;;;;;;5088199;28;20365;-70
2023/05/09 16:39:41;;;;;;;6.07;4.10;;;16.50;99.90;;;;;;5088839;28;20016;-67
2023/05/09 16:42:06;;;;;;;5.15;3.25;;;16.60;99.90;;;;;;5107951;28;20038;-65
2023/05/09 16:44:32;;;;;;;5.22;3.75;;;16.60;99.90;;;;;;5098160;28;20029;-65
2023/05/09 16:46:57;;;;;;;6.68;4.05;;;16.70;99.90;;;;;;5087615;28;20346;-65
2023/05/09 16:49:23;;;;;;;6.03;3.88;;;16.80;99.90;;;;;;5088515;28;20367;-63
2023/05/09 16:51:49;;;;;;;5.32;3.42;;;16.80;99.90;;;;;;5090457;28;20028;-65
2023/05/09 16:54:14;;;;;;;6.28;4.13;;;16.80;99.90;;;;;;5108085;28;20316;-65
2023/05/09 16:56:41;;;;;;;5.80;3.60;;;16.80;99.90;;;;;;5108292;28;20020;-65
2023/05/09 16:59:06;;;;;;;7.03;3.72;;;16.80;99.90;;;;;;5107744;28;20111;-66
2023/05/09 17:01:32;;;;;;;5.45;3.35;;;16.80;99.90;;;;;;5107510;28;20099;-67
2023/05/09 17:04:00;;;;;;;6.30;3.47;;;16.80;99.90;;;;;;5087739;28;20507;-63
2023/05/09 17:06:26;;;;;;;5.50;3.65;;;16.80;99.90;;;;;;5088082;28;20043;-66
2023/05/09 17:08:52;;;;;;;5.82;3.90;;;16.80;99.90;;;;;;5086807;28;20031;-68
2023/05/09 17:11:18;;;;;;;5.78;3.50;;;16.80;99.90;;;;;;5086128;28;20384;-65
2023/05/09 17:13:45;;;;;;;7.13;3.83;;;16.70;99.90;;;;;;5088211;28;20048;-66
2023/05/09 17:16:10;;;;;;;6.13;3.47;;;16.80;99.90;;;;;;5086900;28;20033;-65
2023/05/09 17:18:36;;;;;;;6.10;3.40;;;16.70;99.90;;;;;;5087594;28;20027;-64
2023/05/09 17:21:02;;;;;;;6.25;3.60;;;16.70;99.90;;;;;;5084482;28;20028;-65
2023/05/09 17:23:27;;;;;;;5.35;3.33;;;16.70;99.90;;;;;;5086295;28;20127;-65
2023/05/09 17:25:53;;;;;;;4.38;3.10;;;16.70;99.90;;;;;;5086397;28;20032;-65
2023/05/09 17:28:19;;;;;;;5.40;3.55;;;16.60;99.90;;;;;;5090353;28;20502;-64
2023/05/09 17:30:44;;;;;;;5.03;3.28;;;16.60;99.90;;;;;;5067550;28;20036;-65
2023/05/09 17:33:10;;;;;;;5.00;3.40;;;16.60;99.90;;;;;;5084909;28;20488;-66
2023/05/09 17:35:36;;;;;;;6.22;4.15;;;16.60;99.90;;;;;;5078407;28;20025;-64
2023/05/09 17:38:02;;;;;;;6.18;3.40;;;16.60;99.90;;;;;;5072907;28;20028;-64
2023/05/09 17:40:28;;;;;;;5.93;3.75;;;16.50;99.90;;;;;;5054262;28;20036;-63
2023/05/09 17:42:53;;;;;;;5.10;3.40;;;16.50;99.90;;;;;;5073776;28;20083;-65
2023/05/09 17:45:19;;;;;;;5.63;3.63;;;16.50;99.90;;;;;;5073376;28;20043;-65
2023/05/09 17:47:45;;;;;;;5.78;3.20;;;16.40;99.90;;;;;;5073559;28;20021;-64
2023/05/09 17:50:19;;;;;;;6.57;4.22;;;16.40;99.90;;;;;;5060808;28;20078;-64
2023/05/09 17:52:45;;;;;;;5.97;4.07;;;16.40;99.90;;;;;;5072339;28;20024;-65
2023/05/09 17:55:11;;;;;;;5.97;3.75;;;16.40;99.90;;;;;;5072867;28;20403;-65
2023/05/09 17:57:36;;;;;;;5.03;3.53;;;16.40;99.90;;;;;;5073964;28;20032;-65
2023/05/09 18:00:06;;;;;;;4.82;3.28;;;16.40;99.90;;;;;;5054923;28;20480;-65
2023/05/09 18:02:32;;;;;;;7.45;4.10;;;16.40;99.90;;;;;;5073283;28;20017;-65
2023/05/09 18:04:58;;;;;;;5.82;4.25;;;16.40;99.90;;;;;;5072886;28;20362;-66
2023/05/09 18:07:24;;;;;;;6.22;3.75;;;16.40;99.90;;;;;;5073757;28;20016;-64
2023/05/09 18:09:51;;;;;;;7.40;3.58;;;16.30;99.90;;;;;;5072060;28;20469;-65
2023/05/09 18:12:16;;;;;;;4.68;3.08;;;16.30;99.90;;;;;;5073255;28;20118;-65
2023/05/09 18:14:42;;;;;;;4.97;3.40;;;16.30;99.90;;;;;;5055560;28;20048;-67
2023/05/09 18:17:07;;;;;;;5.53;3.92;;;16.20;99.90;;;;;;5072474;28;20031;-65
2023/05/09 18:19:34;;;;;;;6.68;4.20;;;16.20;99.90;;;;;;5072759;28;20036;-65
2023/05/09 18:22:01;;;;;;;5.18;3.75;;;16.20;99.90;;;;;;5072610;28;20469;-65
2023/05/09 18:24:26;;;;;;;5.13;3.20;;;16.20;99.90;;;;;;5072353;28;20063;-64
2023/05/09 18:26:52;;;;;;;5.25;2.85;;;16.20;99.90;;;;;;5073728;28;20024;-65
2023/05/09 18:29:18;;;;;;;4.70;2.83;;;16.20;99.90;;;;;;5054358;28;20029;-63
2023/05/09 18:31:44;;;;;;;4.10;2.70;;;16.20;99.90;;;;;;5071479;28;20025;-64
2023/05/09 18:34:09;;;;;;;4.40;3.00;;;16.20;99.90;;;;;;5072275;28;20368;-64
2023/05/09 18:36:35;;;;;;;5.43;3.13;;;16.20;99.90;;;;;;5071928;28;20028;-64
2023/05/09 18:39:01;;;;;;;5.38;3.50;;;16.20;99.90;;;;;;5072300;28;20052;-63
2023/05/09 18:41:27;;;;;;;3.95;2.85;;;16.20;99.90;;;;;;5073356;28;20483;-67
2023/05/09 18:43:56;;;;;;;5.10;3.13;;;16.20;99.90;;;;;;5053996;28;20397;-65
2023/05/09 18:46:21;;;;;;;6.13;3.80;;;16.20;99.90;;;;;;5053794;28;20435;-64
2023/05/09 18:48:49;;;;;;;5.70;4.20;;;16.10;99.90;;;;;;5071998;28;20091;-65
2023/05/09 18:51:16;;;;;;;9.98;7.10;;;16.10;99.90;;;;;;5071772;28;20612;-64
2023/05/09 18:53:42;;;;;;;5.82;4.30;;;16.10;99.90;;;;;;5072681;28;20029;-64
2023/05/09 18:56:08;;;;;;;8.48;5.75;;;16.10;99.90;;;;;;5072478;28;20488;-65
2023/05/09 18:58:34;;;;;;;6.60;5.03;;;16.10;99.90;;;;;;5071682;28;20377;-64
2023/05/09 19:01:00;;;;;;;10.05;5.05;;;16.10;99.90;;;;;;5054243;28;20090;-64
2023/05/09 19:03:26;;;;;;;5.22;3.92;;;16.10;99.90;;;;;;5054325;28;20025;-64
2023/05/09 19:05:52;;;;;;;7.63;4.80;;;16.10;99.90;;;;;;5071799;28;20032;-62
2023/05/09 19:08:18;;;;;;;6.00;4.50;;;16.10;99.90;;;;;;5071944;28;20126;-62
2023/05/09 19:10:44;;;;;;;8.27;4.38;;;16.00;99.90;;;;;;5053976;28;20078;-64
2023/05/09 19:13:10;;;;;;;6.72;3.78;;;16.00;99.90;;;;;;5067056;28;20036;-67
